Ou Mun — CRVF9 — position and weather

sailwx.info

Track history (hours):
 
Tides and Currents Weather Stations Pressure Air Temp Water Temp Dewpoint Dewpoint Depression Visibility Wind Speed Wind Dir Waves Ship Positions

Ou Mun

Last reported at 2015-Aug-01 09:33 UTC. Time now 2015-Aug-04 15:52 UTC.
Position N 37°05' W 008°39'.

Length 14 m.

Type: Sailing vessel. MMSI: 263900172.

Date/timePositionNaut miles runAvg speedWind from/ knotsBaromVisibWave heightAir tempDewpointWater temp
2015-Aug-01 09:33N 37°05' W 008°39'4 3.0
2015-Aug-01 08:22N 37°04' W 008°34'4 5.0
2015-Aug-01 07:31N 37°03' W 008°29'6 5.9
2015-Aug-01 06:28N 37°01' W 008°22'  
2015-Jul-25 13:28N 37°01' W 008°09'6 6.6
2015-Jul-25 12:33N 37°03' W 008°16'6 5.9
2015-Jul-25 11:33N 37°04' W 008°24'6 5.4
2015-Jul-25 10:23N 37°06' W 008°31'1 0.1
2015-Jul-24 18:25N 37°07' W 008°32'0 0.0
2015-Jul-24 17:25N 37°07' W 008°32'1 1.3
2015-Jul-24 16:33N 37°06' W 008°31'40 3.9
2015-Jul-24 06:08N 37°42' W 008°55'3 5.8
2015-Jul-24 05:32N 37°45' W 008°55'6 5.9
2015-Jul-24 04:32N 37°51' W 008°54'4 4.5
2015-Jul-24 03:33N 37°56' W 008°54'2 0.1
2015-Jul-22 15:33N 37°57' W 008°52'2 2.4
2015-Jul-22 14:33N 37°55' W 008°54'4 3.8
2015-Jul-22 13:32N 37°56' W 008°59'5 5.0
2015-Jul-22 12:33N 38°00' W 009°02'6 6.1
2015-Jul-22 11:32N 38°06' W 009°02'6 5.7
2015-Jul-22 10:33N 38°12' W 009°04'  
Track history (hours):
 
Tides and Currents Weather Stations Pressure Air Temp Water Temp Dewpoint Dewpoint Depression Visibility Wind Speed Wind Dir Waves Ship Positions

Ou Mun

Last reported at 2015-Aug-01 09:33 UTC. Time now 2015-Aug-04 15:52 UTC.
Position N 37°05' W 008°39'.

Length 14 m.

Type: Sailing vessel. MMSI: 263900172.

Date/timePositionNaut miles runAvg speedWind from/ knotsBaromVisibWave heightAir tempDewpointWater temp
2015-Aug-01 09:33N 37°05' W 008°39'4 3.0
2015-Aug-01 08:22N 37°04' W 008°34'4 5.0
2015-Aug-01 07:31N 37°03' W 008°29'6 5.9
2015-Aug-01 06:28N 37°01' W 008°22'  
2015-Jul-25 13:28N 37°01' W 008°09'6 6.6
2015-Jul-25 12:33N 37°03' W 008°16'6 5.9
2015-Jul-25 11:33N 37°04' W 008°24'6 5.4
2015-Jul-25 10:23N 37°06' W 008°31'1 0.1
2015-Jul-24 18:25N 37°07' W 008°32'0 0.0
2015-Jul-24 17:25N 37°07' W 008°32'1 1.3
2015-Jul-24 16:33N 37°06' W 008°31'40 3.9
2015-Jul-24 06:08N 37°42' W 008°55'3 5.8
2015-Jul-24 05:32N 37°45' W 008°55'6 5.9
2015-Jul-24 04:32N 37°51' W 008°54'4 4.5
2015-Jul-24 03:33N 37°56' W 008°54'2 0.1
2015-Jul-22 15:33N 37°57' W 008°52'2 2.4
2015-Jul-22 14:33N 37°55' W 008°54'4 3.8
2015-Jul-22 13:32N 37°56' W 008°59'5 5.0
2015-Jul-22 12:33N 38°00' W 009°02'6 6.1
2015-Jul-22 11:32N 38°06' W 009°02'6 5.7
2015-Jul-22 10:33N 38°12' W 009°04'  

Dump ship's entire track history